sensor_id;sensor_type;location;lat;lon;timestamp;P1;durP1;ratioP1;P2;durP2;ratioP2
41693;SDS011;27377;50.666;9.150;2023-02-13T00:01:22;11.52;;;7.55;;
41693;SDS011;27377;50.666;9.150;2023-02-13T00:03:48;10.23;;;7.07;;
41693;SDS011;27377;50.666;9.150;2023-02-13T00:06:13;10.48;;;6.97;;
41693;SDS011;27377;50.666;9.150;2023-02-13T00:08:39;11.45;;;7.82;;
41693;SDS011;27377;50.666;9.150;2023-02-13T00:11:04;11.73;;;7.80;;
41693;SDS011;27377;50.666;9.150;2023-02-13T00:13:30;10.13;;;7.32;;
41693;SDS011;27377;50.666;9.150;2023-02-13T00:15:58;10.30;;;7.07;;
41693;SDS011;27377;50.666;9.150;2023-02-13T00:18:25;9.38;;;6.75;;
41693;SDS011;27377;50.666;9.150;2023-02-13T00:20:58;9.70;;;7.13;;
41693;SDS011;27377;50.666;9.150;2023-02-13T00:23:25;10.95;;;7.43;;
41693;SDS011;27377;50.666;9.150;2023-02-13T00:25:50;11.83;;;7.73;;
41693;SDS011;27377;50.666;9.150;2023-02-13T00:28:16;11.60;;;7.20;;
41693;SDS011;27377;50.666;9.150;2023-02-13T00:30:41;10.70;;;7.57;;
41693;SDS011;27377;50.666;9.150;2023-02-13T00:33:07;11.13;;;7.57;;
41693;SDS011;27377;50.666;9.150;2023-02-13T00:35:35;12.10;;;8.07;;
41693;SDS011;27377;50.666;9.150;2023-02-13T00:38:04;10.07;;;7.13;;
41693;SDS011;27377;50.666;9.150;2023-02-13T00:40:29;12.30;;;7.63;;
41693;SDS011;27377;50.666;9.150;2023-02-13T00:42:55;9.83;;;6.90;;
41693;SDS011;27377;50.666;9.150;2023-02-13T00:45:20;11.13;;;7.40;;
41693;SDS011;27377;50.666;9.150;2023-02-13T00:47:55;10.25;;;7.50;;
41693;SDS011;27377;50.666;9.150;2023-02-13T00:50:20;11.23;;;7.67;;
41693;SDS011;27377;50.666;9.150;2023-02-13T00:52:46;10.57;;;7.50;;
41693;SDS011;27377;50.666;9.150;2023-02-13T00:55:11;11.00;;;7.73;;
41693;SDS011;27377;50.666;9.150;2023-02-13T00:57:40;11.25;;;7.50;;
41693;SDS011;27377;50.666;9.150;2023-02-13T01:00:06;10.82;;;7.10;;
41693;SDS011;27377;50.666;9.150;2023-02-13T01:02:32;10.05;;;7.32;;
41693;SDS011;27377;50.666;9.150;2023-02-13T01:05:00;11.07;;;7.13;;
41693;SDS011;27377;50.666;9.150;2023-02-13T01:07:26;10.83;;;7.57;;
41693;SDS011;27377;50.666;9.150;2023-02-13T01:09:51;10.53;;;7.33;;
41693;SDS011;27377;50.666;9.150;2023-02-13T01:12:17;11.80;;;7.80;;
41693;SDS011;27377;50.666;9.150;2023-02-13T01:14:42;12.17;;;7.60;;
41693;SDS011;27377;50.666;9.150;2023-02-13T01:17:08;10.17;;;7.00;;
41693;SDS011;27377;50.666;9.150;2023-02-13T01:19:33;11.97;;;7.40;;
41693;SDS011;27377;50.666;9.150;2023-02-13T01:21:59;11.17;;;7.40;;
41693;SDS011;27377;50.666;9.150;2023-02-13T01:24:25;10.60;;;7.50;;
41693;SDS011;27377;50.666;9.150;2023-02-13T01:26:54;11.60;;;7.45;;
41693;SDS011;27377;50.666;9.150;2023-02-13T01:29:22;11.07;;;7.95;;
41693;SDS011;27377;50.666;9.150;2023-02-13T01:31:48;11.47;;;8.03;;
41693;SDS011;27377;50.666;9.150;2023-02-13T01:34:19;11.50;;;7.95;;
41693;SDS011;27377;50.666;9.150;2023-02-13T01:36:48;10.13;;;7.60;;
41693;SDS011;27377;50.666;9.150;2023-02-13T01:39:20;12.50;;;7.70;;
41693;SDS011;27377;50.666;9.150;2023-02-13T01:41:46;10.73;;;7.35;;
41693;SDS011;27377;50.666;9.150;2023-02-13T01:47:23;10.88;;;7.22;;
41693;SDS011;27377;50.666;9.150;2023-02-13T01:50:04;10.80;;;7.38;;
41693;SDS011;27377;50.666;9.150;2023-02-13T01:52:40;10.87;;;7.47;;
41693;SDS011;27377;50.666;9.150;2023-02-13T01:55:10;11.93;;;7.80;;
41693;SDS011;27377;50.666;9.150;2023-02-13T01:57:39;11.35;;;7.70;;
41693;SDS011;27377;50.666;9.150;2023-02-13T02:00:15;11.68;;;7.75;;
41693;SDS011;27377;50.666;9.150;2023-02-13T02:02:47;12.20;;;7.97;;
41693;SDS011;27377;50.666;9.150;2023-02-13T02:05:20;12.13;;;7.82;;
41693;SDS011;27377;50.666;9.150;2023-02-13T02:07:57;12.13;;;8.43;;
41693;SDS011;27377;50.666;9.150;2023-02-13T02:10:26;13.88;;;8.80;;
41693;SDS011;27377;50.666;9.150;2023-02-13T02:15:40;15.63;;;9.77;;
41693;SDS011;27377;50.666;9.150;2023-02-13T02:18:17;15.27;;;9.52;;
41693;SDS011;27377;50.666;9.150;2023-02-13T02:26:58;16.08;;;10.38;;
41693;SDS011;27377;50.666;9.150;2023-02-13T02:29:54;15.77;;;10.30;;
41693;SDS011;27377;50.666;9.150;2023-02-13T02:32:30;15.13;;;9.90;;
41693;SDS011;27377;50.666;9.150;2023-02-13T02:35:10;14.95;;;10.10;;
41693;SDS011;27377;50.666;9.150;2023-02-13T02:40:42;15.43;;;10.02;;
41693;SDS011;27377;50.666;9.150;2023-02-13T02:43:28;16.90;;;10.43;;
41693;SDS011;27377;50.666;9.150;2023-02-13T02:46:10;17.02;;;11.02;;
41693;SDS011;27377;50.666;9.150;2023-02-13T02:52:09;16.48;;;10.70;;
41693;SDS011;27377;50.666;9.150;2023-02-13T02:54:54;14.65;;;9.82;;
41693;SDS011;27377;50.666;9.150;2023-02-13T02:57:32;15.30;;;9.70;;
41693;SDS011;27377;50.666;9.150;2023-02-13T03:00:43;14.52;;;9.23;;
41693;SDS011;27377;50.666;9.150;2023-02-13T03:03:33;14.95;;;9.80;;
41693;SDS011;27377;50.666;9.150;2023-02-13T03:06:23;15.55;;;9.40;;
41693;SDS011;27377;50.666;9.150;2023-02-13T03:09:00;13.45;;;9.13;;
41693;SDS011;27377;50.666;9.150;2023-02-13T03:11:49;14.73;;;9.35;;
41693;SDS011;27377;50.666;9.150;2023-02-13T03:14:37;14.52;;;9.35;;
41693;SDS011;27377;50.666;9.150;2023-02-13T03:17:02;15.13;;;10.20;;
41693;SDS011;27377;50.666;9.150;2023-02-13T03:23:06;17.10;;;11.53;;
41693;SDS011;27377;50.666;9.150;2023-02-13T03:28:32;19.42;;;12.00;;
41693;SDS011;27377;50.666;9.150;2023-02-13T03:34:25;15.98;;;10.98;;
41693;SDS011;27377;50.666;9.150;2023-02-13T03:37:16;18.37;;;11.90;;
41693;SDS011;27377;50.666;9.150;2023-02-13T03:40:30;16.90;;;11.27;;
41693;SDS011;27377;50.666;9.150;2023-02-13T03:43:28;17.75;;;11.27;;
41693;SDS011;27377;50.666;9.150;2023-02-13T03:46:03;16.05;;;10.93;;
41693;SDS011;27377;50.666;9.150;2023-02-13T03:48:31;17.15;;;10.77;;
41693;SDS011;27377;50.666;9.150;2023-02-13T03:51:20;14.57;;;10.30;;
41693;SDS011;27377;50.666;9.150;2023-02-13T03:54:16;16.48;;;10.70;;
41693;SDS011;27377;50.666;9.150;2023-02-13T03:56:45;16.25;;;10.30;;
41693;SDS011;27377;50.666;9.150;2023-02-13T03:59:33;15.10;;;9.87;;
41693;SDS011;27377;50.666;9.150;2023-02-13T04:07:15;13.95;;;9.68;;
41693;SDS011;27377;50.666;9.150;2023-02-13T04:09:57;15.57;;;9.52;;
41693;SDS011;27377;50.666;9.150;2023-02-13T04:12:32;14.02;;;9.45;;
41693;SDS011;27377;50.666;9.150;2023-02-13T04:15:24;13.02;;;9.23;;
41693;SDS011;27377;50.666;9.150;2023-02-13T04:18:19;14.13;;;9.20;;
41693;SDS011;27377;50.666;9.150;2023-02-13T04:20:47;14.48;;;8.88;;
41693;SDS011;27377;50.666;9.150;2023-02-13T04:23:13;13.48;;;8.82;;
41693;SDS011;27377;50.666;9.150;2023-02-13T04:25:40;14.40;;;9.38;;
41693;SDS011;27377;50.666;9.150;2023-02-13T04:28:09;13.00;;;9.05;;
41693;SDS011;27377;50.666;9.150;2023-02-13T04:30:35;13.67;;;9.03;;
41693;SDS011;27377;50.666;9.150;2023-02-13T04:33:00;14.23;;;9.37;;
41693;SDS011;27377;50.666;9.150;2023-02-13T04:35:26;15.17;;;9.37;;
41693;SDS011;27377;50.666;9.150;2023-02-13T04:37:51;14.93;;;9.20;;
41693;SDS011;27377;50.666;9.150;2023-02-13T04:40:17;13.23;;;8.55;;
41693;SDS011;27377;50.666;9.150;2023-02-13T04:42:42;13.90;;;9.07;;
41693;SDS011;27377;50.666;9.150;2023-02-13T04:45:08;14.60;;;9.13;;
41693;SDS011;27377;50.666;9.150;2023-02-13T04:47:34;14.18;;;9.75;;
41693;SDS011;27377;50.666;9.150;2023-02-13T04:49:59;14.73;;;9.60;;
41693;SDS011;27377;50.666;9.150;2023-02-13T04:52:25;13.67;;;9.13;;
41693;SDS011;27377;50.666;9.150;2023-02-13T04:54:50;13.90;;;9.20;;
41693;SDS011;27377;50.666;9.150;2023-02-13T04:57:16;12.73;;;8.70;;
41693;SDS011;27377;50.666;9.150;2023-02-13T04:59:41;13.53;;;8.90;;
41693;SDS011;27377;50.666;9.150;2023-02-13T05:02:07;13.07;;;8.40;;
41693;SDS011;27377;50.666;9.150;2023-02-13T05:04:32;11.63;;;8.03;;
41693;SDS011;27377;50.666;9.150;2023-02-13T05:06:58;14.20;;;8.80;;
41693;SDS011;27377;50.666;9.150;2023-02-13T05:09:24;11.80;;;7.97;;
41693;SDS011;27377;50.666;9.150;2023-02-13T05:11:50;11.88;;;8.65;;
41693;SDS011;27377;50.666;9.150;2023-02-13T05:14:16;13.73;;;9.00;;
41693;SDS011;27377;50.666;9.150;2023-02-13T05:16:42;12.17;;;8.40;;
41693;SDS011;27377;50.666;9.150;2023-02-13T05:19:07;13.17;;;8.77;;
41693;SDS011;27377;50.666;9.150;2023-02-13T05:21:33;14.47;;;8.90;;
41693;SDS011;27377;50.666;9.150;2023-02-13T05:24:17;12.68;;;8.30;;
41693;SDS011;27377;50.666;9.150;2023-02-13T05:26:43;13.60;;;8.23;;
41693;SDS011;27377;50.666;9.150;2023-02-13T05:29:09;11.77;;;8.33;;
41693;SDS011;27377;50.666;9.150;2023-02-13T05:32:01;13.00;;;8.63;;
41693;SDS011;27377;50.666;9.150;2023-02-13T05:34:27;12.90;;;8.30;;
41693;SDS011;27377;50.666;9.150;2023-02-13T05:36:53;11.40;;;8.13;;
41693;SDS011;27377;50.666;9.150;2023-02-13T05:39:19;11.70;;;8.20;;
41693;SDS011;27377;50.666;9.150;2023-02-13T05:41:45;12.67;;;8.33;;
41693;SDS011;27377;50.666;9.150;2023-02-13T05:44:11;11.60;;;8.27;;
41693;SDS011;27377;50.666;9.150;2023-02-13T05:46:38;11.10;;;7.97;;
41693;SDS011;27377;50.666;9.150;2023-02-13T05:49:05;11.35;;;7.70;;
41693;SDS011;27377;50.666;9.150;2023-02-13T05:51:31;11.63;;;8.15;;
41693;SDS011;27377;50.666;9.150;2023-02-13T05:53:57;11.07;;;7.95;;
41693;SDS011;27377;50.666;9.150;2023-02-13T05:56:23;12.23;;;8.57;;
41693;SDS011;27377;50.666;9.150;2023-02-13T05:58:52;12.37;;;8.33;;
41693;SDS011;27377;50.666;9.150;2023-02-13T06:01:19;12.82;;;8.52;;
41693;SDS011;27377;50.666;9.150;2023-02-13T06:03:45;12.77;;;8.75;;
41693;SDS011;27377;50.666;9.150;2023-02-13T06:06:11;12.60;;;8.43;;
41693;SDS011;27377;50.666;9.150;2023-02-13T06:08:36;12.67;;;8.47;;
41693;SDS011;27377;50.666;9.150;2023-02-13T06:11:02;14.47;;;8.50;;
41693;SDS011;27377;50.666;9.150;2023-02-13T06:13:28;13.70;;;8.65;;
41693;SDS011;27377;50.666;9.150;2023-02-13T06:15:54;13.20;;;9.02;;
41693;SDS011;27377;50.666;9.150;2023-02-13T06:18:20;12.13;;;8.93;;
41693;SDS011;27377;50.666;9.150;2023-02-13T06:20:46;13.20;;;9.33;;
41693;SDS011;27377;50.666;9.150;2023-02-13T06:23:11;13.82;;;9.95;;
41693;SDS011;27377;50.666;9.150;2023-02-13T06:25:37;12.45;;;8.95;;
41693;SDS011;27377;50.666;9.150;2023-02-13T06:28:03;13.77;;;9.60;;
41693;SDS011;27377;50.666;9.150;2023-02-13T06:30:29;13.02;;;9.40;;
41693;SDS011;27377;50.666;9.150;2023-02-13T06:32:55;13.47;;;9.43;;
41693;SDS011;27377;50.666;9.150;2023-02-13T06:35:21;13.82;;;9.07;;
41693;SDS011;27377;50.666;9.150;2023-02-13T06:37:46;14.35;;;9.18;;
41693;SDS011;27377;50.666;9.150;2023-02-13T06:40:13;13.40;;;9.50;;
41693;SDS011;27377;50.666;9.150;2023-02-13T06:42:43;13.50;;;9.23;;
41693;SDS011;27377;50.666;9.150;2023-02-13T06:45:09;13.07;;;9.57;;
41693;SDS011;27377;50.666;9.150;2023-02-13T06:47:39;14.45;;;9.35;;
41693;SDS011;27377;50.666;9.150;2023-02-13T06:50:09;13.50;;;9.45;;
41693;SDS011;27377;50.666;9.150;2023-02-13T06:52:35;13.80;;;9.70;;
41693;SDS011;27377;50.666;9.150;2023-02-13T06:55:01;14.43;;;10.07;;
41693;SDS011;27377;50.666;9.150;2023-02-13T06:57:28;15.02;;;10.02;;
41693;SDS011;27377;50.666;9.150;2023-02-13T06:59:57;15.70;;;10.03;;
41693;SDS011;27377;50.666;9.150;2023-02-13T07:02:23;15.63;;;10.80;;
41693;SDS011;27377;50.666;9.150;2023-02-13T07:04:48;18.30;;;12.07;;
41693;SDS011;27377;50.666;9.150;2023-02-13T07:07:14;20.37;;;11.10;;
41693;SDS011;27377;50.666;9.150;2023-02-13T07:09:39;19.03;;;10.77;;
41693;SDS011;27377;50.666;9.150;2023-02-13T07:12:05;20.57;;;10.30;;
41693;SDS011;27377;50.666;9.150;2023-02-13T07:14:31;24.77;;;10.73;;
41693;SDS011;27377;50.666;9.150;2023-02-13T07:16:57;17.13;;;10.47;;
41693;SDS011;27377;50.666;9.150;2023-02-13T07:19:22;23.57;;;12.10;;
41693;SDS011;27377;50.666;9.150;2023-02-13T07:21:48;23.67;;;11.35;;
41693;SDS011;27377;50.666;9.150;2023-02-13T07:24:14;22.38;;;11.77;;
41693;SDS011;27377;50.666;9.150;2023-02-13T07:26:40;22.20;;;12.07;;
41693;SDS011;27377;50.666;9.150;2023-02-13T07:29:05;24.57;;;12.40;;
41693;SDS011;27377;50.666;9.150;2023-02-13T07:31:34;25.90;;;12.70;;
41693;SDS011;27377;50.666;9.150;2023-02-13T07:33:59;20.58;;;12.50;;
41693;SDS011;27377;50.666;9.150;2023-02-13T07:36:26;27.58;;;11.98;;
41693;SDS011;27377;50.666;9.150;2023-02-13T07:38:52;30.73;;;13.00;;
41693;SDS011;27377;50.666;9.150;2023-02-13T07:41:18;26.02;;;13.30;;
41693;SDS011;27377;50.666;9.150;2023-02-13T07:43:44;22.13;;;13.63;;
41693;SDS011;27377;50.666;9.150;2023-02-13T07:46:09;19.57;;;12.73;;
41693;SDS011;27377;50.666;9.150;2023-02-13T07:48:35;28.00;;;11.60;;
41693;SDS011;27377;50.666;9.150;2023-02-13T07:51:01;25.40;;;11.00;;
41693;SDS011;27377;50.666;9.150;2023-02-13T07:53:28;20.42;;;10.48;;
41693;SDS011;27377;50.666;9.150;2023-02-13T07:55:54;19.20;;;11.18;;
41693;SDS011;27377;50.666;9.150;2023-02-13T07:58:19;17.10;;;11.02;;
41693;SDS011;27377;50.666;9.150;2023-02-13T08:00:45;15.52;;;10.43;;
41693;SDS011;27377;50.666;9.150;2023-02-13T08:03:10;15.10;;;10.53;;
41693;SDS011;27377;50.666;9.150;2023-02-13T08:05:36;18.07;;;11.73;;
41693;SDS011;27377;50.666;9.150;2023-02-13T08:08:02;20.00;;;11.85;;
41693;SDS011;27377;50.666;9.150;2023-02-13T08:10:28;18.50;;;12.27;;
41693;SDS011;27377;50.666;9.150;2023-02-13T08:13:12;14.70;;;10.82;;
41693;SDS011;27377;50.666;9.150;2023-02-13T08:15:39;11.52;;;8.30;;
41693;SDS011;27377;50.666;9.150;2023-02-13T08:18:05;9.00;;;7.10;;
41693;SDS011;27377;50.666;9.150;2023-02-13T08:20:31;9.52;;;6.57;;
41693;SDS011;27377;50.666;9.150;2023-02-13T08:23:08;9.25;;;7.07;;
41693;SDS011;27377;50.666;9.150;2023-02-13T08:25:36;9.80;;;7.50;;
41693;SDS011;27377;50.666;9.150;2023-02-13T08:28:02;9.80;;;7.53;;
41693;SDS011;27377;50.666;9.150;2023-02-13T08:30:28;11.20;;;8.10;;
41693;SDS011;27377;50.666;9.150;2023-02-13T08:32:54;10.65;;;8.15;;
41693;SDS011;27377;50.666;9.150;2023-02-13T08:35:20;10.50;;;8.30;;
41693;SDS011;27377;50.666;9.150;2023-02-13T08:37:46;10.23;;;7.97;;
41693;SDS011;27377;50.666;9.150;2023-02-13T08:40:12;10.57;;;8.23;;
41693;SDS011;27377;50.666;9.150;2023-02-13T08:42:38;11.82;;;8.68;;
41693;SDS011;27377;50.666;9.150;2023-02-13T08:45:03;13.70;;;10.00;;
41693;SDS011;27377;50.666;9.150;2023-02-13T08:47:30;12.90;;;9.40;;
41693;SDS011;27377;50.666;9.150;2023-02-13T08:49:55;13.40;;;9.80;;
41693;SDS011;27377;50.666;9.150;2023-02-13T08:52:21;13.80;;;10.03;;
41693;SDS011;27377;50.666;9.150;2023-02-13T08:54:47;12.87;;;9.77;;
41693;SDS011;27377;50.666;9.150;2023-02-13T08:57:12;13.27;;;10.23;;
41693;SDS011;27377;50.666;9.150;2023-02-13T08:59:38;15.67;;;10.90;;
41693;SDS011;27377;50.666;9.150;2023-02-13T09:02:03;18.00;;;12.20;;
41693;SDS011;27377;50.666;9.150;2023-02-13T09:04:29;15.93;;;11.37;;
41693;SDS011;27377;50.666;9.150;2023-02-13T09:06:55;15.13;;;11.07;;
41693;SDS011;27377;50.666;9.150;2023-02-13T09:09:20;16.08;;;11.82;;
41693;SDS011;27377;50.666;9.150;2023-02-13T09:11:46;16.55;;;11.77;;
41693;SDS011;27377;50.666;9.150;2023-02-13T09:14:12;16.65;;;11.50;;
41693;SDS011;27377;50.666;9.150;2023-02-13T09:16:37;16.70;;;11.80;;
41693;SDS011;27377;50.666;9.150;2023-02-13T09:19:03;16.00;;;11.15;;
41693;SDS011;27377;50.666;9.150;2023-02-13T09:21:28;17.10;;;11.90;;
41693;SDS011;27377;50.666;9.150;2023-02-13T09:23:55;14.95;;;11.20;;
41693;SDS011;27377;50.666;9.150;2023-02-13T09:26:20;16.40;;;11.68;;
41693;SDS011;27377;50.666;9.150;2023-02-13T09:28:46;14.30;;;10.33;;
41693;SDS011;27377;50.666;9.150;2023-02-13T09:31:15;14.73;;;11.60;;
41693;SDS011;27377;50.666;9.150;2023-02-13T09:33:43;18.67;;;14.23;;
41693;SDS011;27377;50.666;9.150;2023-02-13T09:36:12;19.63;;;14.95;;
41693;SDS011;27377;50.666;9.150;2023-02-13T09:38:41;19.27;;;14.82;;
41693;SDS011;27377;50.666;9.150;2023-02-13T09:46:57;15.80;;;11.50;;
41693;SDS011;27377;50.666;9.150;2023-02-13T09:49:29;13.93;;;11.07;;
41693;SDS011;27377;50.666;9.150;2023-02-13T09:51:59;14.35;;;10.88;;
41693;SDS011;27377;50.666;9.150;2023-02-13T09:54:25;13.27;;;9.85;;
41693;SDS011;27377;50.666;9.150;2023-02-13T09:56:56;13.90;;;10.25;;
41693;SDS011;27377;50.666;9.150;2023-02-13T10:07:52;12.90;;;8.85;;
41693;SDS011;27377;50.666;9.150;2023-02-13T10:16:21;11.60;;;8.10;;
41693;SDS011;27377;50.666;9.150;2023-02-13T10:19:18;12.30;;;8.35;;
41693;SDS011;27377;50.666;9.150;2023-02-13T10:22:16;10.70;;;7.80;;
41693;SDS011;27377;50.666;9.150;2023-02-13T10:27:36;11.20;;;8.40;;
41693;SDS011;27377;50.666;9.150;2023-02-13T10:30:07;10.88;;;8.15;;
41693;SDS011;27377;50.666;9.150;2023-02-13T10:35:44;11.05;;;7.70;;
41693;SDS011;27377;50.666;9.150;2023-02-13T10:38:27;10.88;;;7.68;;
41693;SDS011;27377;50.666;9.150;2023-02-13T10:46:41;10.02;;;7.00;;
41693;SDS011;27377;50.666;9.150;2023-02-13T10:52:18;10.55;;;7.10;;
41693;SDS011;27377;50.666;9.150;2023-02-13T10:55:28;9.90;;;7.00;;
41693;SDS011;27377;50.666;9.150;2023-02-13T10:58:14;9.02;;;6.20;;
41693;SDS011;27377;50.666;9.150;2023-02-13T11:01:18;8.15;;;6.03;;
41693;SDS011;27377;50.666;9.150;2023-02-13T11:04:04;7.97;;;5.10;;
41693;SDS011;27377;50.666;9.150;2023-02-13T11:06:33;7.93;;;5.35;;
41693;SDS011;27377;50.666;9.150;2023-02-13T11:09:01;6.55;;;4.88;;
41693;SDS011;27377;50.666;9.150;2023-02-13T11:11:34;7.25;;;5.13;;
41693;SDS011;27377;50.666;9.150;2023-02-13T11:16:56;7.50;;;5.00;;
41693;SDS011;27377;50.666;9.150;2023-02-13T11:22:02;7.40;;;4.85;;
41693;SDS011;27377;50.666;9.150;2023-02-13T11:24:52;7.28;;;4.72;;
41693;SDS011;27377;50.666;9.150;2023-02-13T11:27:22;6.43;;;4.50;;
41693;SDS011;27377;50.666;9.150;2023-02-13T11:29:52;7.85;;;4.90;;
41693;SDS011;27377;50.666;9.150;2023-02-13T11:32:24;6.68;;;4.70;;
41693;SDS011;27377;50.666;9.150;2023-02-13T11:34:51;6.73;;;4.70;;
41693;SDS011;27377;50.666;9.150;2023-02-13T11:37:20;6.40;;;4.57;;
41693;SDS011;27377;50.666;9.150;2023-02-13T11:39:48;6.38;;;4.80;;
41693;SDS011;27377;50.666;9.150;2023-02-13T11:42:33;6.60;;;4.63;;
41693;SDS011;27377;50.666;9.150;2023-02-13T11:45:04;6.93;;;4.50;;
41693;SDS011;27377;50.666;9.150;2023-02-13T11:47:47;6.43;;;4.30;;
41693;SDS011;27377;50.666;9.150;2023-02-13T11:52:51;7.80;;;4.28;;
41693;SDS011;27377;50.666;9.150;2023-02-13T11:55:31;7.40;;;4.15;;
41693;SDS011;27377;50.666;9.150;2023-02-13T11:57:59;5.85;;;3.83;;
41693;SDS011;27377;50.666;9.150;2023-02-13T12:00:29;6.67;;;4.07;;
41693;SDS011;27377;50.666;9.150;2023-02-13T12:02:56;6.15;;;4.10;;
41693;SDS011;27377;50.666;9.150;2023-02-13T12:05:23;6.88;;;4.60;;
41693;SDS011;27377;50.666;9.150;2023-02-13T12:07:50;6.10;;;4.22;;
41693;SDS011;27377;50.666;9.150;2023-02-13T12:10:25;6.32;;;4.22;;
41693;SDS011;27377;50.666;9.150;2023-02-13T12:12:53;5.70;;;4.10;;
41693;SDS011;27377;50.666;9.150;2023-02-13T12:15:31;7.35;;;4.30;;
41693;SDS011;27377;50.666;9.150;2023-02-13T12:18:01;8.13;;;5.00;;
41693;SDS011;27377;50.666;9.150;2023-02-13T12:20:27;6.82;;;4.78;;
41693;SDS011;27377;50.666;9.150;2023-02-13T12:25:52;7.15;;;5.00;;
41693;SDS011;27377;50.666;9.150;2023-02-13T12:31:07;7.97;;;4.70;;
41693;SDS011;27377;50.666;9.150;2023-02-13T12:39:23;6.20;;;4.28;;
41693;SDS011;27377;50.666;9.150;2023-02-13T12:42:04;6.75;;;4.10;;
41693;SDS011;27377;50.666;9.150;2023-02-13T12:47:23;6.55;;;4.20;;
41693;SDS011;27377;50.666;9.150;2023-02-13T12:50:07;6.03;;;4.13;;
41693;SDS011;27377;50.666;9.150;2023-02-13T12:58:48;6.17;;;4.10;;
41693;SDS011;27377;50.666;9.150;2023-02-13T13:15:06;5.20;;;3.70;;
41693;SDS011;27377;50.666;9.150;2023-02-13T13:20:33;6.63;;;4.18;;
41693;SDS011;27377;50.666;9.150;2023-02-13T13:23:22;6.05;;;4.07;;
41693;SDS011;27377;50.666;9.150;2023-02-13T13:26:10;6.95;;;4.30;;
41693;SDS011;27377;50.666;9.150;2023-02-13T13:28:46;6.30;;;4.10;;
41693;SDS011;27377;50.666;9.150;2023-02-13T13:31:15;5.75;;;4.07;;
41693;SDS011;27377;50.666;9.150;2023-02-13T13:33:44;5.95;;;4.30;;
41693;SDS011;27377;50.666;9.150;2023-02-13T13:38:59;6.20;;;4.70;;
41693;SDS011;27377;50.666;9.150;2023-02-13T13:44:33;8.37;;;5.17;;
41693;SDS011;27377;50.666;9.150;2023-02-13T13:50:25;6.77;;;4.93;;
41693;SDS011;27377;50.666;9.150;2023-02-13T13:53:15;7.72;;;4.85;;
41693;SDS011;27377;50.666;9.150;2023-02-13T14:06:25;6.43;;;4.60;;
41693;SDS011;27377;50.666;9.150;2023-02-13T14:09:04;7.00;;;4.80;;
41693;SDS011;27377;50.666;9.150;2023-02-13T14:16:50;6.10;;;4.00;;
41693;SDS011;27377;50.666;9.150;2023-02-13T14:24:49;6.15;;;3.80;;
41693;SDS011;27377;50.666;9.150;2023-02-13T14:27:26;6.45;;;4.22;;
41693;SDS011;27377;50.666;9.150;2023-02-13T14:29:52;6.20;;;4.18;;
41693;SDS011;27377;50.666;9.150;2023-02-13T14:32:32;6.40;;;4.28;;
41693;SDS011;27377;50.666;9.150;2023-02-13T14:35:42;5.97;;;4.15;;
41693;SDS011;27377;50.666;9.150;2023-02-13T14:37:54;6.07;;;4.20;;
41693;SDS011;27377;50.666;9.150;2023-02-13T14:40:27;6.20;;;3.80;;
41693;SDS011;27377;50.666;9.150;2023-02-13T14:43:08;6.55;;;4.10;;
41693;SDS011;27377;50.666;9.150;2023-02-13T14:48:57;6.97;;;3.80;;
41693;SDS011;27377;50.666;9.150;2023-02-13T14:51:40;5.60;;;3.80;;
41693;SDS011;27377;50.666;9.150;2023-02-13T14:56:43;5.93;;;3.55;;
41693;SDS011;27377;50.666;9.150;2023-02-13T14:59:13;5.25;;;3.20;;
41693;SDS011;27377;50.666;9.150;2023-02-13T15:01:45;5.22;;;3.10;;
41693;SDS011;27377;50.666;9.150;2023-02-13T15:04:25;4.80;;;3.40;;
41693;SDS011;27377;50.666;9.150;2023-02-13T15:06:55;5.50;;;3.37;;
41693;SDS011;27377;50.666;9.150;2023-02-13T15:09:26;4.93;;;3.30;;
41693;SDS011;27377;50.666;9.150;2023-02-13T15:11:56;4.97;;;3.22;;
41693;SDS011;27377;50.666;9.150;2023-02-13T15:14:23;5.40;;;3.30;;
41693;SDS011;27377;50.666;9.150;2023-02-13T15:17:02;4.65;;;2.97;;
41693;SDS011;27377;50.666;9.150;2023-02-13T15:19:43;5.20;;;3.17;;
41693;SDS011;27377;50.666;9.150;2023-02-13T15:22:18;4.53;;;2.80;;
41693;SDS011;27377;50.666;9.150;2023-02-13T15:24:46;4.13;;;2.75;;
41693;SDS011;27377;50.666;9.150;2023-02-13T15:27:23;4.60;;;2.83;;
41693;SDS011;27377;50.666;9.150;2023-02-13T15:29:58;4.50;;;2.63;;
41693;SDS011;27377;50.666;9.150;2023-02-13T15:32:34;5.25;;;3.17;;
41693;SDS011;27377;50.666;9.150;2023-02-13T15:35:20;4.30;;;2.80;;
41693;SDS011;27377;50.666;9.150;2023-02-13T15:37:46;5.10;;;2.80;;
41693;SDS011;27377;50.666;9.150;2023-02-13T15:40:12;4.97;;;2.93;;
41693;SDS011;27377;50.666;9.150;2023-02-13T15:42:46;5.75;;;2.72;;
41693;SDS011;27377;50.666;9.150;2023-02-13T15:45:13;5.97;;;3.10;;
41693;SDS011;27377;50.666;9.150;2023-02-13T15:47:40;4.85;;;2.60;;
41693;SDS011;27377;50.666;9.150;2023-02-13T15:50:18;4.93;;;2.90;;
41693;SDS011;27377;50.666;9.150;2023-02-13T15:52:50;4.47;;;2.70;;
41693;SDS011;27377;50.666;9.150;2023-02-13T15:55:20;3.70;;;2.50;;
41693;SDS011;27377;50.666;9.150;2023-02-13T15:57:48;4.68;;;2.50;;
41693;SDS011;27377;50.666;9.150;2023-02-13T16:00:18;5.70;;;2.80;;
41693;SDS011;27377;50.666;9.150;2023-02-13T16:02:49;4.95;;;3.15;;
41693;SDS011;27377;50.666;9.150;2023-02-13T16:05:16;4.60;;;2.83;;
41693;SDS011;27377;50.666;9.150;2023-02-13T16:07:56;5.00;;;2.90;;
41693;SDS011;27377;50.666;9.150;2023-02-13T16:10:30;4.60;;;3.20;;
41693;SDS011;27377;50.666;9.150;2023-02-13T16:12:57;5.63;;;3.10;;
41693;SDS011;27377;50.666;9.150;2023-02-13T16:15:27;5.88;;;3.03;;
41693;SDS011;27377;50.666;9.150;2023-02-13T16:17:54;5.65;;;3.22;;
41693;SDS011;27377;50.666;9.150;2023-02-13T16:20:24;4.78;;;3.08;;
41693;SDS011;27377;50.666;9.150;2023-02-13T16:22:56;6.15;;;3.35;;
41693;SDS011;27377;50.666;9.150;2023-02-13T16:25:30;5.97;;;3.40;;
41693;SDS011;27377;50.666;9.150;2023-02-13T16:28:02;5.75;;;3.30;;
41693;SDS011;27377;50.666;9.150;2023-02-13T16:30:38;5.82;;;3.30;;
41693;SDS011;27377;50.666;9.150;2023-02-13T16:33:08;5.05;;;3.35;;
41693;SDS011;27377;50.666;9.150;2023-02-13T16:38:26;5.40;;;3.47;;
41693;SDS011;27377;50.666;9.150;2023-02-13T16:40:57;5.78;;;3.30;;
41693;SDS011;27377;50.666;9.150;2023-02-13T16:43:33;5.10;;;3.50;;
41693;SDS011;27377;50.666;9.150;2023-02-13T16:48:41;7.63;;;3.13;;
41693;SDS011;27377;50.666;9.150;2023-02-13T16:51:07;4.60;;;3.10;;
41693;SDS011;27377;50.666;9.150;2023-02-13T16:53:33;5.23;;;3.40;;
41693;SDS011;27377;50.666;9.150;2023-02-13T16:56:04;5.95;;;3.30;;
41693;SDS011;27377;50.666;9.150;2023-02-13T16:58:32;6.70;;;3.50;;
41693;SDS011;27377;50.666;9.150;2023-02-13T17:00:57;5.00;;;3.13;;
41693;SDS011;27377;50.666;9.150;2023-02-13T17:03:25;5.05;;;3.30;;
41693;SDS011;27377;50.666;9.150;2023-02-13T17:05:51;6.17;;;3.40;;
41693;SDS011;27377;50.666;9.150;2023-02-13T17:08:17;5.70;;;3.50;;
41693;SDS011;27377;50.666;9.150;2023-02-13T17:10:42;6.23;;;3.47;;
41693;SDS011;27377;50.666;9.150;2023-02-13T17:13:29;6.05;;;3.40;;
41693;SDS011;27377;50.666;9.150;2023-02-13T17:15:55;5.07;;;3.20;;
41693;SDS011;27377;50.666;9.150;2023-02-13T17:18:20;7.53;;;3.80;;
41693;SDS011;27377;50.666;9.150;2023-02-13T17:20:46;6.03;;;3.70;;
41693;SDS011;27377;50.666;9.150;2023-02-13T17:23:14;6.18;;;3.83;;
41693;SDS011;27377;50.666;9.150;2023-02-13T17:25:42;6.57;;;3.90;;
41693;SDS011;27377;50.666;9.150;2023-02-13T17:28:16;6.85;;;4.28;;
41693;SDS011;27377;50.666;9.150;2023-02-13T17:30:45;6.43;;;4.13;;
41693;SDS011;27377;50.666;9.150;2023-02-13T17:33:22;8.67;;;4.50;;